createdAt,value
2022-11-04T00:01:08.175Z,97497.63
2022-11-04T00:03:10.154Z,97499.25
2022-11-04T00:05:11.785Z,97497.63
2022-11-04T00:07:31.624Z,97499.25
2022-11-04T00:09:33.195Z,97493.75
2022-11-04T00:11:53.349Z,97494.88
2022-11-04T00:13:55.171Z,97492.94
2022-11-04T00:16:19.929Z,97496.81
2022-11-04T00:18:21.519Z,97489.09
2022-11-04T00:20:41.428Z,97504.44
2022-11-04T00:23:01.666Z,97510.72
2022-11-04T00:25:21.920Z,97515.69
2022-11-04T00:27:42.186Z,97522.81
2022-11-04T00:29:44.251Z,97525.56
2022-11-04T00:32:04.432Z,97528.31
2022-11-04T00:34:05.882Z,97529.13
2022-11-04T00:36:07.645Z,97525.84
2022-11-04T00:38:09.626Z,97533.50
2022-11-04T00:40:16.373Z,97532.97
2022-11-04T00:42:18.017Z,97534.91
2022-11-04T00:44:19.414Z,97541.72
2022-11-04T00:46:21.937Z,97546.94
2022-11-04T00:48:23.592Z,97545.78
2022-11-04T00:50:25.049Z,97551.28
2022-11-04T00:52:26.532Z,97541.13
2022-11-04T00:54:28.104Z,97549.84
2022-11-04T00:56:29.538Z,97546.81
2022-11-04T00:58:31.130Z,97549.84
2022-11-04T01:00:32.695Z,97549.84
2022-11-04T01:02:34.339Z,97536.94
2022-11-04T01:04:36.355Z,97539.69
2022-11-04T01:06:37.785Z,97539.38
2022-11-04T01:08:40.256Z,97528.41
2022-11-04T01:10:44.539Z,97530.53
2022-11-04T01:12:46.028Z,97541.53
2022-11-04T01:14:49.815Z,97559.63
2022-11-04T01:16:51.376Z,97562.88
2022-11-04T01:18:53.409Z,97577.69
2022-11-04T01:20:55.277Z,97572.75
2022-11-04T01:22:56.882Z,97565.31
2022-11-04T01:24:58.491Z,97558.22
2022-11-04T01:27:00.032Z,97536.25
2022-11-04T01:29:01.533Z,97548.53
2022-11-04T01:31:10.967Z,97555.97
2022-11-04T01:33:12.631Z,97542.75
2022-11-04T01:35:14.200Z,97541.94
2022-11-04T01:37:15.677Z,97535.66
2022-11-04T01:39:17.136Z,97547.13
2022-11-04T01:41:30.874Z,97538.38
2022-11-04T01:43:57.780Z,97539.50
2022-11-04T01:46:01.361Z,97537.25
2022-11-04T01:48:13.020Z,97534.81
2022-11-04T01:50:22.974Z,97533.69
2022-11-04T01:52:33.942Z,97544.38
2022-11-04T01:54:37.261Z,97547.94
2022-11-04T01:56:41.513Z,97550.69
2022-11-04T01:58:53.356Z,97549.06
2022-11-04T02:00:54.958Z,97560.53
2022-11-04T02:03:04.032Z,97555.38
2022-11-04T02:05:06.085Z,97561.34
2022-11-04T02:07:10.105Z,97570.69
2022-11-04T02:09:12.052Z,97569.59
2022-11-04T02:11:33.684Z,97577.50
2022-11-04T02:13:36.698Z,97571.50
2022-11-04T02:15:47.276Z,97567.94
2022-11-04T02:18:03.665Z,97571.84
2022-11-04T02:20:11.127Z,97586.66
2022-11-04T02:22:30.919Z,97599.28
2022-11-04T02:24:57.710Z,97607.81
2022-11-04T02:27:36.705Z,97612.50
2022-11-04T02:29:43.941Z,97618.00
2022-11-04T02:31:48.257Z,97621.03
2022-11-04T02:33:56.765Z,97614.72
2022-11-04T02:36:09.485Z,97598.88
2022-11-04T02:38:20.468Z,97598.88
2022-11-04T02:40:39.352Z,97595.31
2022-11-04T02:43:01.171Z,97597.22
2022-11-04T02:45:29.781Z,97596.13
2022-11-04T02:47:33.088Z,97598.06
2022-11-04T02:49:43.704Z,97603.53
2022-11-04T02:51:52.209Z,97614.81
2022-11-04T02:54:20.855Z,97611.88
2022-11-04T02:56:24.343Z,97614.53
2022-11-04T02:58:32.177Z,97612.06
2022-11-04T03:00:34.558Z,97601.06
2022-11-04T03:03:01.674Z,97600.28
2022-11-04T03:05:05.929Z,97590.09
2022-11-04T03:09:21.285Z,97588.50
2022-11-04T03:11:25.751Z,97582.50
2022-11-04T03:13:38.906Z,97590.72
2022-11-04T03:15:46.489Z,97591.53
2022-11-04T03:17:59.825Z,97586.84
2022-11-04T03:20:06.073Z,97586.03
2022-11-04T03:22:15.227Z,97590.72
2022-11-04T03:24:16.880Z,97592.34
2022-11-04T03:26:23.471Z,97593.47
2022-11-04T03:28:58.436Z,97596.00
2022-11-04T03:31:03.329Z,97600.66
2022-11-04T03:33:04.760Z,97605.34
2022-11-04T03:35:07.491Z,97600.66
2022-11-04T03:37:09.189Z,97608.09
2022-11-04T03:39:10.689Z,97617.13
2022-11-04T03:41:26.511Z,97610.81
2022-11-04T03:43:29.696Z,97614.38
2022-11-04T03:45:31.498Z,97615.22
2022-11-04T03:47:33.466Z,97617.13
2022-11-04T03:49:35.352Z,97611.38
2022-11-04T03:51:36.915Z,97617.13
2022-11-04T03:53:38.669Z,97613.28
2022-11-04T03:55:54.023Z,97618.78
2022-11-04T03:58:03.534Z,97617.13
2022-11-04T04:00:18.665Z,97622.63
2022-11-04T04:02:33.518Z,97618.28
2022-11-04T04:04:38.928Z,97618.28
2022-11-04T04:06:43.253Z,97624.53
2022-11-04T04:08:53.485Z,97633.59
2022-11-04T04:11:06.033Z,97629.25
2022-11-04T04:13:23.219Z,97634.72
2022-11-04T04:15:31.707Z,97639.09
2022-11-04T04:17:48.632Z,97636.34
2022-11-04T04:19:57.911Z,97630.03
2022-11-04T04:22:06.019Z,97627.59
2022-11-04T04:24:29.237Z,97629.25
2022-11-04T04:26:52.955Z,97633.41
2022-11-04T04:28:56.650Z,97638.91
2022-11-04T04:31:00.346Z,97635.84
2022-11-04T04:33:18.646Z,97631.78
2022-11-04T04:35:42.633Z,97644.06
2022-11-04T04:37:45.625Z,97636.66
2022-11-04T04:40:10.936Z,97647.63
2022-11-04T04:42:31.096Z,97640.50
2022-11-04T04:44:52.257Z,97648.44
2022-11-04T04:46:55.798Z,97642.16
2022-11-04T04:49:07.100Z,97638.59
2022-11-04T04:51:09.011Z,97633.59
2022-11-04T04:53:11.345Z,97636.84
2022-11-04T04:55:14.097Z,97640.72
2022-11-04T04:57:15.898Z,97636.84
2022-11-04T04:59:17.425Z,97636.34
2022-11-04T05:01:19.218Z,97622.13
2022-11-04T05:03:20.777Z,97613.88
2022-11-04T05:05:22.856Z,97615.00
2022-11-04T05:07:24.495Z,97603.50
2022-11-04T05:09:25.917Z,97607.06
2022-11-04T05:11:27.538Z,97613.38
2022-11-04T05:13:31.889Z,97613.97
2022-11-04T05:15:34.375Z,97611.22
2022-11-04T05:17:35.935Z,97609.31
2022-11-04T05:19:37.477Z,97607.38
2022-11-04T05:21:39.096Z,97612.88
2022-11-04T05:23:40.586Z,97604.94
2022-11-04T05:25:42.671Z,97604.94
2022-11-04T05:27:44.404Z,97608.81
2022-11-04T05:29:45.950Z,97609.09
2022-11-04T05:31:47.636Z,97607.97
2022-11-04T05:33:49.177Z,97588.28
2022-11-04T05:35:50.874Z,97578.91
2022-11-04T05:37:52.378Z,97575.66
2022-11-04T05:39:53.939Z,97580.03
2022-11-04T05:41:55.436Z,97568.84
2022-11-04T05:43:59.338Z,97567.75
2022-11-04T05:46:01.435Z,97589.97
2022-11-04T05:48:04.968Z,97605.94
2022-11-04T05:50:07.106Z,97611.41
2022-11-04T05:52:08.790Z,97613.66
2022-11-04T05:54:10.405Z,97621.56
2022-11-04T05:56:12.044Z,97630.63
2022-11-04T05:58:13.616Z,97635.00
2022-11-04T06:00:16.552Z,97627.38
2022-11-04T06:02:18.055Z,97634.78
2022-11-04T06:04:19.698Z,97638.63
2022-11-04T06:06:22.491Z,97627.97
2022-11-04T06:08:23.965Z,97613.44
2022-11-04T06:10:25.728Z,97600.03
2022-11-04T06:12:27.236Z,97603.88
2022-11-04T06:14:28.658Z,97601.94
2022-11-04T06:16:30.291Z,97616.25
2022-11-04T06:18:31.825Z,97626.41
2022-11-04T06:20:33.494Z,97634.94
2022-11-04T06:22:34.933Z,97640.75
2022-11-04T06:24:36.495Z,97649.25
2022-11-04T06:26:39.642Z,97669.59
2022-11-04T06:28:41.234Z,97681.88
2022-11-04T06:30:42.871Z,97682.16
2022-11-04T06:32:44.434Z,97686.84
2022-11-04T06:34:46.206Z,97695.88
2022-11-04T06:36:49.184Z,97695.06
2022-11-04T06:38:50.741Z,97711.00
2022-11-04T06:40:52.984Z,97709.09
2022-11-04T06:42:54.530Z,97717.63
2022-11-04T06:44:56.132Z,97728.59
2022-11-04T06:46:57.714Z,97734.06
2022-11-04T06:48:59.469Z,97743.41
2022-11-04T06:51:01.710Z,97736.28
2022-11-04T06:53:03.321Z,97752.72
2022-11-04T06:55:05.469Z,97751.94
2022-11-04T06:57:08.800Z,97752.72
2022-11-04T06:59:16.261Z,97755.47
2022-11-04T07:01:22.064Z,97752.72
2022-11-04T07:03:24.017Z,97742.38
2022-11-04T07:05:25.587Z,97742.38
2022-11-04T07:07:29.205Z,97741.56
2022-11-04T07:09:30.764Z,97741.03
2022-11-04T07:11:33.768Z,97737.47
2022-11-04T07:13:35.256Z,97731.47
2022-11-04T07:15:39.144Z,97738.06
2022-11-04T07:17:40.688Z,97744.06
2022-11-04T07:19:42.221Z,97745.97
2022-11-04T07:21:43.807Z,97747.13
2022-11-04T07:23:45.400Z,97740.00
2022-11-04T07:25:47.037Z,97740.28
2022-11-04T07:27:48.603Z,97736.44
2022-11-04T07:29:50.183Z,97725.47
2022-11-04T07:31:51.638Z,97719.19
2022-11-04T07:33:53.861Z,97701.09
2022-11-04T07:35:57.122Z,97685.72
2022-11-04T07:37:59.910Z,97674.50
2022-11-04T07:40:01.610Z,97661.28
2022-11-04T07:42:03.270Z,97672.25
2022-11-04T07:44:05.612Z,97680.47
2022-11-04T07:46:12.436Z,97683.22
2022-11-04T07:48:13.973Z,97685.97
2022-11-04T07:50:15.670Z,97678.56
2022-11-04T07:52:17.228Z,97684.88
2022-11-04T07:54:18.723Z,97680.72
2022-11-04T07:56:20.572Z,97681.22
2022-11-04T07:58:22.991Z,97674.59
2022-11-04T08:00:24.652Z,97665.59
2022-11-04T08:02:31.104Z,97653.81
2022-11-04T08:04:35.839Z,97658.47
2022-11-04T08:06:37.551Z,97660.09
2022-11-04T08:08:39.300Z,97671.88
2022-11-04T08:10:40.889Z,97685.31
2022-11-04T08:12:42.415Z,97674.03
2022-11-04T08:14:43.877Z,97678.69
2022-11-04T08:16:45.486Z,97670.19
2022-11-04T08:18:48.454Z,97690.47
2022-11-04T08:20:51.180Z,97693.53
2022-11-04T08:22:52.701Z,97706.41
2022-11-04T08:24:54.208Z,97709.97
2022-11-04T08:26:55.782Z,97723.69
2022-11-04T08:28:57.650Z,97731.63
2022-11-04T08:31:07.557Z,97734.66
2022-11-04T08:33:09.185Z,97743.41
2022-11-04T08:35:11.935Z,97748.88
2022-11-04T08:37:15.344Z,97755.78
2022-11-04T08:39:16.833Z,97765.03
2022-11-04T08:41:22.324Z,97762.03
2022-11-04T08:43:24.296Z,97775.72
2022-11-04T08:45:29.937Z,97769.44
2022-11-04T08:47:34.335Z,97776.00
2022-11-04T08:49:39.771Z,97780.69
2022-11-04T08:51:45.298Z,97783.13
2022-11-04T08:53:46.883Z,97783.13
2022-11-04T08:55:49.056Z,97774.59
2022-11-04T08:57:51.071Z,97778.47
2022-11-04T08:59:52.586Z,97770.53
2022-11-04T09:01:54.473Z,97775.72
2022-11-04T09:03:56.119Z,97773.56
2022-11-04T09:05:57.979Z,97779.06
2022-11-04T09:08:01.132Z,97779.56
2022-11-04T09:10:03.094Z,97778.47
2022-11-04T09:12:04.888Z,97767.78
2022-11-04T09:14:07.362Z,97774.91
2022-11-04T09:16:11.923Z,97762.28
2022-11-04T09:18:13.483Z,97773.00
2022-11-04T09:20:15.086Z,97765.34
2022-11-04T09:22:17.155Z,97767.78
2022-11-04T09:24:18.731Z,97774.09
2022-11-04T09:26:22.523Z,97766.44
2022-11-04T09:28:25.064Z,97774.41
2022-11-04T09:30:26.813Z,97780.41
2022-11-04T09:32:28.408Z,97771.84
2022-11-04T09:34:30.572Z,97772.69
2022-11-04T09:36:32.161Z,97763.34
2022-11-04T09:38:33.683Z,97758.69
2022-11-04T09:40:37.890Z,97747.72
2022-11-04T09:43:13.916Z,97744.97
2022-11-04T09:45:23.079Z,97734.00
2022-11-04T09:47:26.001Z,97728.22
2022-11-04T09:49:32.486Z,97721.91
2022-11-04T09:54:00.850Z,97724.06
2022-11-04T09:56:30.472Z,97724.06
2022-11-04T09:58:37.869Z,97724.06
2022-11-04T10:00:41.461Z,97728.44
2022-11-04T10:03:04.867Z,97735.53
2022-11-04T10:05:24.754Z,97736.34
2022-11-04T10:07:41.710Z,97739.91
2022-11-04T10:09:48.978Z,97738.50
2022-11-04T10:11:58.332Z,97735.47
2022-11-04T10:14:37.961Z,97728.34
2022-11-04T10:17:13.696Z,97729.97
2022-11-04T10:19:40.840Z,97721.47
2022-11-04T10:22:23.831Z,97717.31
2022-11-04T10:24:41.496Z,97715.06
2022-11-04T10:26:54.848Z,97708.16
2022-11-04T10:29:09.468Z,97700.13
2022-11-04T10:31:16.735Z,97703.44
2022-11-04T10:33:35.332Z,97702.28
2022-11-04T10:35:42.581Z,97709.34
2022-11-04T10:37:46.922Z,97696.94
2022-11-04T10:39:48.633Z,97703.44
2022-11-04T10:41:50.448Z,97698.19
2022-11-04T10:44:08.043Z,97709.34
2022-11-04T10:46:26.240Z,97711.50
2022-11-04T10:48:37.093Z,97712.25
2022-11-04T10:50:54.078Z,97709.72
2022-11-04T10:53:11.249Z,97708.81
2022-11-04T10:55:28.620Z,97699.97
2022-11-04T10:57:30.991Z,97708.13
2022-11-04T10:59:50.225Z,97715.13
2022-11-04T11:01:54.340Z,97719.44
2022-11-04T11:03:58.059Z,97728.91
2022-11-04T11:06:16.965Z,97727.72
2022-11-04T11:08:34.142Z,97726.50
2022-11-04T11:10:36.083Z,97729.97
2022-11-04T11:12:51.400Z,97742.50
2022-11-04T11:14:53.847Z,97735.75
2022-11-04T11:17:17.381Z,97742.78
2022-11-04T11:19:21.498Z,97735.56
2022-11-04T11:21:26.164Z,97740.66
2022-11-04T11:23:47.364Z,97735.34
2022-11-04T11:25:52.371Z,97725.06
2022-11-04T11:27:55.416Z,97717.53
2022-11-04T11:29:57.203Z,97713.84
2022-11-04T11:32:00.918Z,97708.56
2022-11-04T11:34:07.162Z,97709.56
2022-11-04T11:36:26.411Z,97701.00
2022-11-04T11:38:33.707Z,97694.59
2022-11-04T11:40:51.974Z,97692.34
2022-11-04T11:43:00.879Z,97687.84
2022-11-04T11:45:10.412Z,97682.81
2022-11-04T11:47:38.232Z,97677.31
2022-11-04T11:49:39.997Z,97667.84
2022-11-04T11:51:43.011Z,97673.84
2022-11-04T11:54:12.586Z,97683.44
2022-11-04T11:56:26.039Z,97682.81
2022-11-04T12:01:30.423Z,97683.03
2022-11-04T12:09:42.009Z,97682.09
2022-11-04T12:11:58.358Z,97684.53
2022-11-04T12:14:13.750Z,97681.97
2022-11-04T12:16:33.960Z,97675.03
2022-11-04T12:18:50.131Z,97675.53
2022-11-04T12:21:22.016Z,97667.75
2022-11-04T12:23:39.498Z,97663.28
2022-11-04T12:25:46.711Z,97665.41
2022-11-04T12:28:06.729Z,97676.91
2022-11-04T12:30:13.214Z,97674.66
2022-11-04T12:32:29.836Z,97680.38
2022-11-04T12:34:52.902Z,97683.59
2022-11-04T12:37:04.248Z,97695.13
2022-11-04T12:39:15.062Z,97696.22
2022-11-04T12:41:58.905Z,97700.63
2022-11-04T12:44:13.297Z,97699.81
2022-11-04T12:46:24.023Z,97705.31
2022-11-04T12:48:57.780Z,97714.72
2022-11-04T12:51:22.318Z,97716.16
2022-11-04T12:53:37.457Z,97717.25
2022-11-04T12:56:09.273Z,97715.94
2022-11-04T12:58:28.461Z,97725.03
2022-11-04T13:00:32.517Z,97721.44
2022-11-04T13:02:40.391Z,97725.31
2022-11-04T13:04:54.318Z,97720.13
2022-11-04T13:07:01.625Z,97724.81
2022-11-04T13:09:15.223Z,97718.00
2022-11-04T13:11:25.841Z,97729.00
2022-11-04T13:13:34.303Z,97723.84
2022-11-04T13:15:44.553Z,97722.19
2022-11-04T13:17:50.038Z,97725.25
2022-11-04T13:20:00.696Z,97727.81
2022-11-04T13:22:08.590Z,97728.94
2022-11-04T13:24:20.477Z,97726.19
2022-11-04T13:26:22.132Z,97732.31
2022-11-04T13:28:24.163Z,97733.13
2022-11-04T13:30:45.901Z,97727.94
2022-11-04T13:32:55.860Z,97725.19
2022-11-04T13:35:09.245Z,97729.03
2022-11-04T13:37:22.877Z,97724.19
2022-11-04T13:39:29.269Z,97727.44
2022-11-04T13:41:39.998Z,97724.19
2022-11-04T13:43:49.552Z,97727.56
2022-11-04T13:45:53.625Z,97727.84
2022-11-04T13:47:58.042Z,97729.81
2022-11-04T13:49:59.888Z,97726.22
2022-11-04T13:52:08.770Z,97729.28
2022-11-04T13:54:31.777Z,97727.19
2022-11-04T13:56:37.406Z,97724.91
2022-11-04T13:58:43.068Z,97726.84
2022-11-04T14:01:10.072Z,97721.66
2022-11-04T14:03:26.701Z,97718.09
2022-11-04T14:05:28.342Z,97724.41
2022-11-04T14:08:01.072Z,97732.97
2022-11-04T14:10:03.642Z,97735.72
2022-11-04T14:12:11.366Z,97736.00
2022-11-04T14:14:19.415Z,97732.16
2022-11-04T14:16:23.580Z,97737.13
2022-11-04T14:18:34.415Z,97742.94
2022-11-04T14:20:37.079Z,97745.38
2022-11-04T14:22:44.483Z,97749.25
2022-11-04T14:24:54.595Z,97746.81
2022-11-04T14:26:56.333Z,97756.19
2022-11-04T14:29:06.244Z,97754.06
2022-11-04T14:31:16.964Z,97759.06
2022-11-04T14:33:23.916Z,97752.75
2022-11-04T14:35:26.450Z,97761.28
2022-11-04T14:37:33.352Z,97761.59
2022-11-04T14:39:40.597Z,97763.53
2022-11-04T14:41:48.608Z,97767.72
2022-11-04T14:43:52.313Z,97767.72
2022-11-04T14:45:55.409Z,97765.56
2022-11-04T14:48:15.639Z,97777.22
2022-11-04T14:50:21.806Z,97773.13
2022-11-04T14:52:32.557Z,97777.31
2022-11-04T14:54:34.916Z,97780.84
2022-11-04T14:56:36.613Z,97775.66
2022-11-04T14:58:38.158Z,97779.84
2022-11-04T15:00:53.293Z,97782.38
2022-11-04T15:03:04.023Z,97783.53
2022-11-04T15:05:05.797Z,97790.34
2022-11-04T15:07:23.798Z,97792.38
2022-11-04T15:09:35.087Z,97791.88
2022-11-04T15:12:03.198Z,97797.38
2022-11-04T15:14:14.398Z,97794.41
2022-11-04T15:16:18.707Z,97795.22
2022-11-04T15:18:28.235Z,97792.47
2022-11-04T15:20:31.740Z,97796.97
2022-11-04T15:22:33.385Z,97793.69
2022-11-04T15:24:35.798Z,97790.16
2022-11-04T15:26:37.550Z,97798.69
2022-11-04T15:28:47.190Z,97795.44
2022-11-04T15:31:05.425Z,97808.34
2022-11-04T15:33:17.189Z,97805.09
2022-11-04T15:35:19.187Z,97807.84
2022-11-04T15:37:24.077Z,97801.84
2022-11-04T15:39:40.082Z,97800.19
2022-11-04T15:42:02.340Z,97802.44
2022-11-04T15:44:04.287Z,97803.25
2022-11-04T15:46:06.024Z,97807.44
2022-11-04T15:48:31.710Z,97804.47
2022-11-04T15:50:33.382Z,97810.47
2022-11-04T15:52:35.237Z,97808.84
2022-11-04T15:54:40.162Z,97813.84
2022-11-04T15:56:50.837Z,97807.81
2022-11-04T15:58:54.544Z,97803.44
2022-11-04T16:00:56.640Z,97811.19
2022-11-04T16:03:00.950Z,97819.72
2022-11-04T16:05:21.150Z,97812.63
2022-11-04T16:07:24.284Z,97819.00
2022-11-04T16:09:28.392Z,97824.28
2022-11-04T16:11:30.110Z,97824.56
2022-11-04T16:13:32.202Z,97821.63
2022-11-04T16:15:35.610Z,97820.31
2022-11-04T16:17:44.823Z,97821.50
2022-11-04T16:19:49.572Z,97830.06
2022-11-04T16:22:04.338Z,97827.38
2022-11-04T16:24:23.573Z,97834.31
2022-11-04T16:26:28.397Z,97830.97
2022-11-04T16:28:34.883Z,97828.88
2022-11-04T16:30:36.482Z,97831.06
2022-11-04T16:32:43.728Z,97827.31
2022-11-04T16:34:46.925Z,97829.22
2022-11-04T16:36:48.428Z,97836.44
2022-11-04T16:38:57.017Z,97830.72
2022-11-04T16:40:58.778Z,97836.81
2022-11-04T16:43:00.283Z,97836.28
2022-11-04T16:45:04.249Z,97835.78
2022-11-04T16:47:06.252Z,97834.75
2022-11-04T16:49:09.536Z,97831.78
2022-11-04T16:51:19.380Z,97843.06
2022-11-04T16:53:20.897Z,97831.84
2022-11-04T16:55:24.000Z,97842.31
2022-11-04T16:57:25.698Z,97847.31
2022-11-04T16:59:27.292Z,97848.41
2022-11-04T17:01:28.870Z,97845.41
2022-11-04T17:03:30.785Z,97844.41
2022-11-04T17:05:32.338Z,97847.72
2022-11-04T17:07:52.455Z,97848.03
2022-11-04T17:09:56.055Z,97854.94
2022-11-04T17:11:57.567Z,97856.03
2022-11-04T17:13:59.215Z,97860.50
2022-11-04T17:16:00.736Z,97863.81
2022-11-04T17:18:02.232Z,97871.53
2022-11-04T17:20:05.005Z,97872.41
2022-11-04T17:22:08.154Z,97877.09
2022-11-04T17:24:11.654Z,97875.44
2022-11-04T17:26:13.505Z,97887.53
2022-11-04T17:28:15.092Z,97885.06
2022-11-04T17:30:18.026Z,97887.31
2022-11-04T17:32:20.029Z,97890.34
2022-11-04T17:34:25.741Z,97892.53
2022-11-04T17:36:27.686Z,97887.38
2022-11-04T17:38:29.204Z,97897.50
2022-11-04T17:40:30.836Z,97887.13
2022-11-04T17:42:51.425Z,97900.31
2022-11-04T17:44:53.000Z,97897.38
2022-11-04T17:46:54.587Z,97896.81
2022-11-04T17:48:56.346Z,97894.38
2022-11-04T17:50:57.933Z,97899.84
2022-11-04T17:52:59.579Z,97907.06
2022-11-04T17:55:01.266Z,97907.06
2022-11-04T17:57:03.576Z,97913.31
2022-11-04T17:59:05.384Z,97912.81
2022-11-04T18:01:08.251Z,97914.72
2022-11-04T18:03:12.204Z,97926.31
2022-11-04T18:05:14.220Z,97922.44
2022-11-04T18:07:15.784Z,97936.44
2022-11-04T18:09:18.460Z,97934.53
2022-11-04T18:11:40.000Z,97937.53
2022-11-04T18:13:41.488Z,97937.84
2022-11-04T18:15:44.151Z,97937.03
2022-11-04T18:17:46.172Z,97941.69
2022-11-04T18:19:47.806Z,97940.84
2022-11-04T18:21:51.271Z,97933.75
2022-11-04T18:23:55.138Z,97938.41
2022-11-04T18:25:56.992Z,97940.34
2022-11-04T18:27:58.572Z,97942.81
2022-11-04T18:30:00.183Z,97943.38
2022-11-04T18:32:01.809Z,97942.81
2022-11-04T18:34:09.325Z,97944.44
2022-11-04T18:36:10.971Z,97947.75
2022-11-04T18:38:12.403Z,97950.22
2022-11-04T18:40:13.965Z,97952.44
2022-11-04T18:42:15.600Z,97949.94
2022-11-04T18:44:22.128Z,97951.59
2022-11-04T18:46:23.735Z,97950.78
2022-11-04T18:48:25.357Z,97949.94
2022-11-04T18:50:26.990Z,97951.06
2022-11-04T18:52:28.529Z,97951.63
2022-11-04T18:54:30.333Z,97952.72
2022-11-04T18:56:32.491Z,97954.13
2022-11-04T18:58:36.010Z,97960.41
2022-11-04T19:00:40.030Z,97960.41
2022-11-04T19:02:41.664Z,97956.59
2022-11-04T19:04:43.173Z,97964.81
2022-11-04T19:06:45.075Z,97972.72
2022-11-04T19:08:47.531Z,97974.94
2022-11-04T19:11:00.525Z,97981.81
2022-11-04T19:13:18.054Z,97986.19
2022-11-04T19:15:19.665Z,97987.00
2022-11-04T19:17:21.569Z,97984.28
2022-11-04T19:19:22.969Z,97985.66
2022-11-04T19:21:25.099Z,97993.06
2022-11-04T19:23:26.637Z,97998.03
2022-11-04T19:25:28.888Z,98001.59
2022-11-04T19:27:30.843Z,98009.28
2022-11-04T19:29:32.924Z,98015.56
2022-11-04T19:31:34.809Z,98011.47
2022-11-04T19:33:36.679Z,98017.50
2022-11-04T19:35:38.311Z,98018.84
2022-11-04T19:37:39.888Z,98024.34
2022-11-04T19:39:41.456Z,98021.88
2022-11-04T19:42:02.462Z,98027.34
2022-11-04T19:44:07.348Z,98026.53
2022-11-04T19:46:09.031Z,98032.84
2022-11-04T19:48:13.732Z,98042.97
2022-11-04T19:50:15.503Z,98033.94
2022-11-04T19:52:17.201Z,98031.22
2022-11-04T19:54:19.115Z,98037.25
2022-11-04T19:56:22.397Z,98043.00
2022-11-04T19:58:24.024Z,98042.47
2022-11-04T20:00:25.928Z,98041.66
2022-11-04T20:02:27.571Z,98058.94
2022-11-04T20:04:29.139Z,98051.84
2022-11-04T20:06:32.301Z,98058.09
2022-11-04T20:08:36.136Z,98058.09
2022-11-04T20:10:43.245Z,98057.00
2022-11-04T20:13:03.492Z,98072.09
2022-11-04T20:15:05.703Z,98073.19
2022-11-04T20:17:07.379Z,98079.81
2022-11-04T20:19:09.434Z,98078.69
2022-11-04T20:21:11.429Z,98087.72
2022-11-04T20:23:13.003Z,98093.22
2022-11-04T20:25:14.610Z,98098.69
2022-11-04T20:27:16.557Z,98098.69
2022-11-04T20:29:18.124Z,98100.06
2022-11-04T20:31:23.280Z,98103.94
2022-11-04T20:33:24.707Z,98105.03
2022-11-04T20:35:26.384Z,98108.28
2022-11-04T20:37:27.988Z,98110.22
2022-11-04T20:39:29.541Z,98110.22
2022-11-04T20:41:32.242Z,98116.53
2022-11-04T20:43:35.904Z,98122.81
2022-11-04T20:45:38.929Z,98127.47
2022-11-04T20:47:41.285Z,98126.66
2022-11-04T20:49:42.846Z,98122.81
2022-11-04T20:51:50.151Z,98125.56
2022-11-04T20:53:56.731Z,98125.56
2022-11-04T20:55:58.342Z,98126.13
2022-11-04T20:57:59.779Z,98119.03
2022-11-04T21:00:01.387Z,98126.44
2022-11-04T21:02:03.125Z,98130.53
2022-11-04T21:04:07.323Z,98129.44
2022-11-04T21:06:12.234Z,98131.38
2022-11-04T21:08:13.797Z,98141.22
2022-11-04T21:10:15.541Z,98140.13
2022-11-04T21:12:19.073Z,98141.22
2022-11-04T21:14:20.698Z,98140.38
2022-11-04T21:16:22.267Z,98141.78
2022-11-04T21:18:24.370Z,98141.78
2022-11-04T21:20:25.893Z,98149.72
2022-11-04T21:22:27.418Z,98146.72
2022-11-04T21:24:29.008Z,98148.91
2022-11-04T21:26:34.035Z,98154.38
2022-11-04T21:28:35.728Z,98154.94
2022-11-04T21:30:39.010Z,98160.44
2022-11-04T21:32:40.542Z,98165.06
2022-11-04T21:34:42.030Z,98161.25
2022-11-04T21:36:43.663Z,98151.69
2022-11-04T21:38:45.284Z,98156.59
2022-11-04T21:40:47.115Z,98157.97
2022-11-04T21:42:48.597Z,98156.84
2022-11-04T21:44:50.136Z,98166.19
2022-11-04T21:46:52.515Z,98169.75
2022-11-04T21:48:55.203Z,98172.78
2022-11-04T21:51:00.947Z,98173.06
2022-11-04T21:53:02.400Z,98172.78
2022-11-04T21:55:04.374Z,98174.16
2022-11-04T21:57:05.975Z,98180.75
2022-11-04T21:59:07.541Z,98173.91
2022-11-04T22:01:10.842Z,98176.38
2022-11-04T22:03:12.745Z,98178.56
2022-11-04T22:05:14.559Z,98176.69
2022-11-04T22:07:36.087Z,98182.16
2022-11-04T22:09:37.606Z,98182.16
2022-11-04T22:11:39.850Z,98182.41
2022-11-04T22:13:42.053Z,98180.50
2022-11-04T22:15:58.751Z,98179.41
2022-11-04T22:18:00.266Z,98176.94
2022-11-04T22:20:01.876Z,98174.50
2022-11-04T22:22:03.433Z,98180.81
2022-11-04T22:24:05.156Z,98192.84
2022-11-04T22:26:10.034Z,98183.81
2022-11-04T22:28:11.611Z,98173.41
2022-11-04T22:30:13.471Z,98175.34
2022-11-04T22:32:15.047Z,98173.97
2022-11-04T22:34:16.629Z,98176.72
2022-11-04T22:36:18.603Z,98184.38
2022-11-04T22:38:20.207Z,98171.81
2022-11-04T22:40:21.605Z,98188.50
2022-11-04T22:42:23.305Z,98182.47
2022-11-04T22:44:24.964Z,98189.34
2022-11-04T22:46:31.846Z,98195.38
2022-11-04T22:48:34.476Z,98197.31
2022-11-04T22:50:36.001Z,98203.06
2022-11-04T22:52:37.506Z,98198.13
2022-11-04T22:54:39.023Z,98207.72
2022-11-04T22:56:40.675Z,98202.53
2022-11-04T22:58:42.262Z,98198.44
2022-11-04T23:00:44.200Z,98203.63
2022-11-04T23:02:45.906Z,98201.47
2022-11-04T23:04:47.415Z,98207.50
2022-11-04T23:06:48.972Z,98207.75
2022-11-04T23:08:59.534Z,98213.50
2022-11-04T23:11:32.474Z,98207.75
2022-11-04T23:13:52.696Z,98209.69
2022-11-04T23:16:12.886Z,98213.53
2022-11-04T23:18:33.033Z,98212.16
2022-11-04T23:20:34.577Z,98212.72
2022-11-04T23:22:56.445Z,98211.09
2022-11-04T23:25:07.044Z,98207.78
2022-11-04T23:27:08.794Z,98219.84
2022-11-04T23:29:28.733Z,98217.38
2022-11-04T23:31:30.273Z,98217.94
2022-11-04T23:33:50.232Z,98217.13
2022-11-04T23:36:10.634Z,98216.28
2022-11-04T23:38:12.706Z,98214.63
2022-11-04T23:40:14.559Z,98216.56
2022-11-04T23:42:21.203Z,98220.41
2022-11-04T23:44:41.259Z,98225.03
2022-11-04T23:47:01.587Z,98220.94
2022-11-04T23:49:21.735Z,98215.22
2022-11-04T23:51:41.849Z,98212.75
2022-11-04T23:54:02.158Z,98213.84
2022-11-04T23:56:23.145Z,98217.94
2022-11-04T23:58:43.297Z,98220.09
